createdAt,value
2018-01-12T00:00:40.602Z,62.13
2018-01-12T00:03:08.880Z,63.43
2018-01-12T00:05:37.589Z,61.43
2018-01-12T00:08:05.905Z,62.13
2018-01-12T00:10:34.367Z,66.50
2018-01-12T00:13:02.667Z,63.67
2018-01-12T00:15:30.977Z,63.13
2018-01-12T00:17:59.674Z,60.20
2018-01-12T00:20:28.049Z,65.63
2018-01-12T00:22:56.759Z,66.57
2018-01-12T00:25:25.108Z,67.47
2018-01-12T00:27:53.822Z,66.97
2018-01-12T00:30:22.151Z,72.17
2018-01-12T00:32:50.527Z,68.00
2018-01-12T00:35:18.839Z,64.73
2018-01-12T00:37:47.519Z,61.60
2018-01-12T00:40:16.190Z,62.67
2018-01-12T00:42:44.518Z,66.70
2018-01-12T00:45:12.822Z,61.53
2018-01-12T00:47:41.111Z,65.63
2018-01-12T00:50:09.423Z,67.60
2018-01-12T00:52:37.698Z,61.53
2018-01-12T00:55:06.048Z,61.77
2018-01-12T00:57:34.352Z,63.53
2018-01-12T01:00:02.659Z,61.40
2018-01-12T01:02:30.974Z,67.13
2018-01-12T01:04:59.251Z,66.43
2018-01-12T01:07:27.527Z,72.43
2018-01-12T01:21:48.398Z,67.97
2018-01-12T01:24:16.705Z,62.33
2018-01-12T01:26:45.419Z,67.93
2018-01-12T01:29:13.731Z,61.43
2018-01-12T01:31:42.322Z,64.57
2018-01-12T01:34:10.661Z,63.27
2018-01-12T01:36:38.962Z,60.17
2018-01-12T01:39:07.258Z,64.70
2018-01-12T01:41:35.578Z,64.10
2018-01-12T01:44:03.890Z,58.20
2018-01-12T01:46:32.423Z,61.70
2018-01-12T01:49:00.797Z,58.97
2018-01-12T01:51:29.494Z,63.87
2018-01-12T01:53:57.845Z,65.67
2018-01-12T01:56:26.930Z,57.30
2018-01-12T01:58:55.230Z,61.67
2018-01-12T02:01:23.934Z,60.90
2018-01-12T02:03:52.221Z,62.60
2018-01-12T02:06:20.529Z,61.50
2018-01-12T02:08:48.818Z,61.10
2018-01-12T02:11:17.135Z,57.03
2018-01-12T02:13:45.409Z,64.10
2018-01-12T02:16:13.715Z,60.70
2018-01-12T02:18:42.030Z,59.60
2018-01-12T02:21:10.330Z,62.13
2018-01-12T02:23:39.030Z,58.20
2018-01-12T02:26:07.354Z,61.33
2018-01-12T02:28:35.948Z,57.27
2018-01-12T02:31:04.266Z,63.20
2018-01-12T02:33:32.977Z,62.63
2018-01-12T02:36:01.258Z,65.47
2018-01-12T02:38:29.649Z,57.20
2018-01-12T02:40:57.948Z,59.90
2018-01-12T02:43:26.242Z,58.97
2018-01-12T02:45:54.950Z,61.93
2018-01-12T02:48:23.303Z,61.43
2018-01-12T02:50:51.983Z,54.47
2018-01-12T02:53:20.671Z,55.70
2018-01-12T02:55:49.398Z,59.00
2018-01-12T02:58:17.686Z,56.67
2018-01-12T03:00:46.006Z,62.77
2018-01-12T03:03:14.766Z,58.60
2018-01-12T03:05:43.491Z,58.60
2018-01-12T03:08:12.214Z,59.37
2018-01-12T03:10:40.511Z,57.60
2018-01-12T03:13:09.126Z,56.50
2018-01-12T03:15:37.803Z,60.37
2018-01-12T03:18:06.091Z,64.93
2018-01-12T03:20:34.366Z,60.07
2018-01-12T03:23:03.075Z,65.70
2018-01-12T03:25:31.377Z,57.50
2018-01-12T03:27:59.667Z,61.20
2018-01-12T03:30:27.979Z,65.03
2018-01-12T03:32:56.295Z,60.47
2018-01-12T03:35:24.943Z,56.60
2018-01-12T03:37:53.239Z,58.57
2018-01-12T03:40:21.595Z,58.90
2018-01-12T03:42:49.897Z,63.30
2018-01-12T03:45:18.228Z,57.07
2018-01-12T03:47:46.518Z,59.93
2018-01-12T03:50:14.796Z,58.20
2018-01-12T03:52:43.082Z,60.50
2018-01-12T03:55:12.247Z,61.00
2018-01-12T03:57:40.531Z,55.97
2018-01-12T04:00:08.841Z,61.03
2018-01-12T04:02:37.519Z,59.27
2018-01-12T04:05:06.906Z,59.93
2018-01-12T04:07:35.216Z,61.10
2018-01-12T04:10:03.528Z,63.47
2018-01-12T04:12:31.917Z,64.17
2018-01-12T04:15:00.246Z,58.03
2018-01-12T04:17:28.555Z,57.53
2018-01-12T04:19:56.860Z,60.13
2018-01-12T04:22:25.181Z,62.73
2018-01-12T04:24:53.489Z,58.60
2018-01-12T04:27:21.775Z,58.70
2018-01-12T04:29:50.058Z,59.77
2018-01-12T04:32:18.363Z,62.87
2018-01-12T04:34:47.047Z,57.23
2018-01-12T04:37:15.358Z,62.03
2018-01-12T04:39:43.965Z,60.03
2018-01-12T04:42:12.391Z,65.07
2018-01-12T04:44:41.061Z,58.37
2018-01-12T04:47:09.646Z,59.63
2018-01-12T04:49:37.962Z,59.53
2018-01-12T04:52:06.261Z,57.70
2018-01-12T04:54:34.562Z,54.27
2018-01-12T04:57:03.763Z,55.17
2018-01-12T04:59:32.057Z,53.87
2018-01-12T05:02:00.333Z,57.17
2018-01-12T05:04:28.922Z,52.67
2018-01-12T05:06:57.617Z,52.07
2018-01-12T05:09:25.903Z,54.87
2018-01-12T05:11:54.230Z,56.83
2018-01-12T05:14:22.558Z,56.57
2018-01-12T05:16:50.864Z,57.90
2018-01-12T05:19:19.182Z,55.40
2018-01-12T05:21:47.469Z,48.90
2018-01-12T05:24:16.138Z,51.93
2018-01-12T05:26:44.467Z,52.80
2018-01-12T05:29:12.822Z,51.57
2018-01-12T05:31:41.122Z,54.50
2018-01-12T05:34:09.444Z,50.03
2018-01-12T05:36:38.134Z,50.40
2018-01-12T05:39:06.442Z,52.07
2018-01-12T05:41:34.882Z,51.13
2018-01-12T05:44:03.190Z,48.10
2018-01-12T05:46:31.868Z,45.30
2018-01-12T05:49:00.174Z,44.93
2018-01-12T05:51:28.711Z,47.07
2018-01-12T05:53:57.294Z,46.97
2018-01-12T05:56:25.601Z,49.63
2018-01-12T05:58:54.563Z,49.13
2018-01-12T06:04:36.378Z,46.10
2018-01-12T06:07:04.782Z,42.70
2018-01-12T06:09:33.198Z,45.73
2018-01-12T06:12:01.715Z,43.40
2018-01-12T06:14:30.040Z,46.93
2018-01-12T06:16:58.710Z,42.33
2018-01-12T06:19:27.374Z,44.23
2018-01-12T06:21:55.682Z,44.00
2018-01-12T06:24:23.983Z,42.63
2018-01-12T06:26:52.259Z,39.67
2018-01-12T06:29:21.088Z,36.87
2018-01-12T06:31:49.727Z,37.97
2018-01-12T06:34:18.490Z,38.03
2018-01-12T06:36:46.861Z,41.23
2018-01-12T06:39:15.419Z,38.50
2018-01-12T06:41:43.771Z,39.80
2018-01-12T06:44:12.513Z,36.60
2018-01-12T06:46:41.963Z,37.40
2018-01-12T06:49:10.686Z,36.40
2018-01-12T06:51:39.665Z,34.90
2018-01-12T06:54:08.877Z,37.40
2018-01-12T06:56:37.554Z,35.37
2018-01-12T06:59:06.128Z,32.37
2018-01-12T07:01:34.483Z,35.60
2018-01-12T07:04:03.227Z,32.57
2018-01-12T07:06:31.598Z,30.80
2018-01-12T07:09:00.281Z,33.23
2018-01-12T07:11:28.951Z,32.43
2018-01-12T07:13:57.319Z,29.23
2018-01-12T07:16:25.682Z,28.53
2018-01-12T07:18:53.994Z,31.60
2018-01-12T07:21:34.094Z,27.80
2018-01-12T07:24:02.387Z,27.97
2018-01-12T07:26:30.663Z,27.33
2018-01-12T07:28:58.959Z,25.63
2018-01-12T07:31:27.259Z,25.33
2018-01-12T07:33:55.619Z,25.37
2018-01-12T07:36:24.382Z,26.13
2018-01-12T07:38:52.727Z,25.40
2018-01-12T07:41:21.114Z,26.30
2018-01-12T07:43:49.442Z,28.07
2018-01-12T07:46:18.142Z,27.37
2018-01-12T07:48:46.891Z,24.10
2018-01-12T07:51:15.190Z,28.50
2018-01-12T07:53:43.497Z,26.53
2018-01-12T07:56:11.859Z,25.83
2018-01-12T07:58:40.546Z,27.70
2018-01-12T08:01:14.524Z,27.00
2018-01-12T08:03:43.303Z,27.73
2018-01-12T08:06:11.857Z,27.37
2018-01-12T08:08:40.200Z,26.17
2018-01-12T08:11:08.540Z,26.03
2018-01-12T08:13:36.848Z,26.33
2018-01-12T08:16:05.227Z,26.50
2018-01-12T08:18:33.795Z,28.10
2018-01-12T08:21:02.112Z,25.10
2018-01-12T08:23:30.389Z,24.30
2018-01-12T08:25:58.708Z,27.03
2018-01-12T08:28:27.026Z,29.10
2018-01-12T08:30:55.772Z,32.33
2018-01-12T08:33:24.516Z,27.57
2018-01-12T08:35:52.835Z,27.47
2018-01-12T08:38:21.172Z,24.40
2018-01-12T08:40:49.593Z,28.53
2018-01-12T08:43:17.900Z,26.00
2018-01-12T08:45:46.657Z,27.80
2018-01-12T08:48:14.945Z,26.90
2018-01-12T08:50:43.313Z,25.57
2018-01-12T08:53:11.658Z,29.00
2018-01-12T08:55:40.072Z,28.57
2018-01-12T08:58:08.460Z,27.10
2018-01-12T09:00:36.758Z,27.07
2018-01-12T09:03:05.460Z,24.43
2018-01-12T09:05:34.202Z,26.70
2018-01-12T09:08:02.503Z,27.80
2018-01-12T09:10:30.809Z,25.97
2018-01-12T09:12:59.230Z,29.30
2018-01-12T09:15:29.453Z,29.50
2018-01-12T09:18:00.816Z,26.57
2018-01-12T09:20:34.068Z,27.07
2018-01-12T09:23:12.153Z,27.93
2018-01-12T09:25:40.444Z,28.23
2018-01-12T09:28:08.827Z,27.53
2018-01-12T09:30:37.948Z,29.30
2018-01-12T09:33:06.294Z,27.70
2018-01-12T09:35:34.592Z,26.43
2018-01-12T09:38:15.412Z,26.67
2018-01-12T09:40:50.586Z,24.53
2018-01-12T09:43:18.866Z,26.00
2018-01-12T09:45:47.231Z,25.67
2018-01-12T09:48:26.273Z,29.80
2018-01-12T09:50:54.671Z,28.43
2018-01-12T09:53:22.975Z,23.83
2018-01-12T09:55:51.677Z,22.30
2018-01-12T09:58:20.006Z,20.70
2018-01-12T10:01:06.240Z,24.60
2018-01-12T10:03:34.549Z,22.70
2018-01-12T10:06:02.994Z,20.47
2018-01-12T10:08:31.446Z,21.03
2018-01-12T10:11:00.667Z,18.80
2018-01-12T10:13:28.967Z,21.80
2018-01-12T10:15:57.708Z,20.20
2018-01-12T10:18:42.305Z,21.10
2018-01-12T10:21:22.425Z,18.70
2018-01-12T10:23:50.707Z,15.20
2018-01-12T10:26:19.023Z,13.07
2018-01-12T10:29:00.066Z,13.97
2018-01-12T10:34:44.671Z,17.63
2018-01-12T10:37:13.021Z,16.00
2018-01-12T10:39:53.226Z,17.47
2018-01-12T10:42:21.540Z,21.20
2018-01-12T10:44:50.147Z,18.70
2018-01-12T10:47:25.681Z,22.63
2018-01-12T10:52:50.694Z,19.47
2018-01-12T10:55:19.037Z,19.70
2018-01-12T10:57:47.341Z,19.17
2018-01-12T11:00:24.673Z,20.37
2018-01-12T11:02:53.413Z,20.73
2018-01-12T11:05:22.014Z,20.47
2018-01-12T11:07:50.789Z,20.00
2018-01-12T11:10:19.254Z,17.50
2018-01-12T11:12:47.552Z,25.73
2018-01-12T11:15:16.283Z,24.03
2018-01-12T11:17:44.709Z,27.27
2018-01-12T11:20:13.007Z,24.30
2018-01-12T11:22:41.342Z,26.93
2018-01-12T11:25:09.741Z,25.37
2018-01-12T11:27:38.057Z,27.03
2018-01-12T11:30:06.795Z,26.63
2018-01-12T11:32:35.081Z,25.40
2018-01-12T11:35:03.430Z,29.37
2018-01-12T11:37:31.766Z,26.50
2018-01-12T11:40:00.850Z,29.43
2018-01-12T11:42:29.142Z,26.37
2018-01-12T11:44:57.858Z,32.80
2018-01-12T11:47:26.274Z,29.73
2018-01-12T11:49:54.755Z,27.20
2018-01-12T11:52:23.063Z,28.30
2018-01-12T11:54:52.797Z,27.13
2018-01-12T11:57:21.106Z,25.03
2018-01-12T11:59:49.418Z,26.43
2018-01-12T12:02:17.714Z,31.90
2018-01-12T12:04:46.562Z,25.87
2018-01-12T12:07:14.919Z,27.07
2018-01-12T12:09:43.229Z,27.73
2018-01-12T12:12:11.594Z,27.73
2018-01-12T12:14:39.911Z,30.63
2018-01-12T12:17:08.589Z,30.73
2018-01-12T12:19:37.301Z,29.97
2018-01-12T12:22:05.640Z,29.07
2018-01-12T12:24:33.949Z,31.73
2018-01-12T12:27:02.239Z,28.90
2018-01-12T12:29:30.562Z,27.23
2018-01-12T12:31:58.942Z,29.97
2018-01-12T12:34:28.575Z,32.80
2018-01-12T12:36:57.263Z,30.90
2018-01-12T12:39:25.713Z,33.73
2018-01-12T12:41:54.011Z,30.53
2018-01-12T12:44:22.293Z,31.50
2018-01-12T12:46:51.008Z,30.47
2018-01-12T12:49:19.310Z,31.90
2018-01-12T12:51:47.901Z,16.40
2018-01-12T12:54:16.243Z,15.57
2018-01-12T12:56:44.537Z,18.53
2018-01-12T12:59:13.160Z,18.67
2018-01-12T13:01:41.580Z,23.53
2018-01-12T13:04:09.863Z,18.77
2018-01-12T13:06:38.184Z,21.83
2018-01-12T13:09:06.527Z,24.73
2018-01-12T13:11:34.830Z,27.33
2018-01-12T13:14:03.131Z,27.57
2018-01-12T13:16:31.448Z,30.30
2018-01-12T13:18:59.758Z,26.50
2018-01-12T13:21:28.056Z,30.10
2018-01-12T13:23:56.375Z,30.33
2018-01-12T13:26:24.691Z,31.23
2018-01-12T13:28:52.987Z,30.27
2018-01-12T13:31:21.724Z,30.20
2018-01-12T13:33:50.055Z,26.60
2018-01-12T13:36:18.404Z,31.03
2018-01-12T13:38:46.725Z,31.30
2018-01-12T13:41:15.457Z,32.60
2018-01-12T13:43:43.750Z,29.43
2018-01-12T13:46:12.042Z,32.50
2018-01-12T13:48:40.450Z,29.20
2018-01-12T13:51:08.776Z,30.87
2018-01-12T13:53:37.090Z,32.63
2018-01-12T13:56:05.835Z,34.60
2018-01-12T13:58:34.139Z,30.33
2018-01-12T14:01:02.570Z,33.40
2018-01-12T14:03:30.909Z,33.83
2018-01-12T14:05:59.679Z,33.00
2018-01-12T14:08:28.593Z,33.87
2018-01-12T14:10:56.971Z,32.13
2018-01-12T14:13:25.666Z,32.03
2018-01-12T14:15:54.915Z,35.47
2018-01-12T14:18:23.295Z,34.90
2018-01-12T14:20:51.608Z,33.60
2018-01-12T14:23:20.342Z,34.10
2018-01-12T14:25:48.704Z,33.10
2018-01-12T14:28:16.994Z,33.23
2018-01-12T14:30:45.351Z,37.47
2018-01-12T14:33:14.518Z,36.40
2018-01-12T14:35:43.386Z,33.10
2018-01-12T14:38:11.757Z,34.93
2018-01-12T14:40:40.046Z,37.30
2018-01-12T14:43:08.341Z,33.83
2018-01-12T14:45:36.673Z,37.23
2018-01-12T14:48:05.004Z,35.57
2018-01-12T14:50:33.707Z,32.37
2018-01-12T14:53:02.039Z,38.67
2018-01-12T14:55:30.353Z,37.30
2018-01-12T14:57:59.051Z,34.03
2018-01-12T15:00:27.514Z,35.67
2018-01-12T15:02:55.882Z,37.00
2018-01-12T15:05:24.568Z,36.27
2018-01-12T15:07:53.423Z,34.37
2018-01-12T15:10:22.153Z,34.03
2018-01-12T15:12:50.546Z,40.33
2018-01-12T15:15:19.018Z,32.47
2018-01-12T15:17:47.467Z,37.83
2018-01-12T15:20:16.313Z,34.37
2018-01-12T15:22:44.823Z,37.17
2018-01-12T15:25:13.418Z,38.80
2018-01-12T15:27:42.030Z,38.33
2018-01-12T15:30:10.377Z,33.63
2018-01-12T15:32:38.701Z,38.23
2018-01-12T15:35:07.123Z,33.93
2018-01-12T15:37:35.487Z,37.80
2018-01-12T15:40:03.776Z,34.33
2018-01-12T15:42:32.061Z,38.33
2018-01-12T15:45:00.399Z,38.83
2018-01-12T15:47:28.697Z,37.67
2018-01-12T15:49:56.984Z,40.00
2018-01-12T15:52:25.295Z,38.60
2018-01-12T15:54:53.998Z,41.37
2018-01-12T15:57:22.322Z,40.20
2018-01-12T15:59:50.701Z,39.83
2018-01-12T16:02:18.998Z,39.03
2018-01-12T16:04:47.288Z,37.80
2018-01-12T16:07:16.041Z,39.07
2018-01-12T16:09:44.357Z,38.10
2018-01-12T16:12:12.703Z,41.13
2018-01-12T16:14:41.025Z,39.80
2018-01-12T16:17:09.330Z,39.70
2018-01-12T16:19:37.626Z,42.37
2018-01-12T16:22:05.960Z,42.73
2018-01-12T16:24:34.706Z,41.67
2018-01-12T16:27:02.995Z,41.53
2018-01-12T16:29:31.878Z,43.77
2018-01-12T16:32:00.202Z,42.83
2018-01-12T16:34:28.491Z,43.90
2018-01-12T16:36:57.223Z,44.67
2018-01-12T16:39:25.606Z,41.00
2018-01-12T16:41:54.310Z,45.97
2018-01-12T16:44:22.682Z,46.40
2018-01-12T16:46:51.009Z,44.90
2018-01-12T16:49:19.312Z,43.80
2018-01-12T16:51:47.902Z,43.40
2018-01-12T16:54:16.460Z,41.70
2018-01-12T16:56:45.063Z,41.90
2018-01-12T16:59:13.404Z,44.83
2018-01-12T17:01:41.731Z,43.33
2018-01-12T17:04:10.032Z,43.57
2018-01-12T17:06:38.330Z,44.80
2018-01-12T17:09:06.639Z,45.17
2018-01-12T17:11:35.377Z,44.87
2018-01-12T17:14:03.663Z,41.70
2018-01-12T17:16:31.990Z,46.63
2018-01-12T17:19:00.271Z,45.13
2018-01-12T17:21:28.687Z,47.13
2018-01-12T17:23:57.002Z,46.10
2018-01-12T17:26:26.254Z,41.67
2018-01-12T17:28:54.579Z,37.90
2018-01-12T17:31:22.886Z,39.03
2018-01-12T17:33:51.966Z,41.10
2018-01-12T17:36:20.314Z,40.97
2018-01-12T17:38:48.666Z,39.73
2018-01-12T17:41:16.982Z,40.17
2018-01-12T17:43:45.277Z,42.93
2018-01-12T17:46:14.003Z,40.60
2018-01-12T17:48:42.326Z,39.83
2018-01-12T17:51:10.669Z,39.90
2018-01-12T17:53:39.000Z,36.73
2018-01-12T17:56:07.338Z,39.30
2018-01-12T17:58:35.672Z,39.60
2018-01-12T18:01:04.022Z,37.33
2018-01-12T18:03:32.348Z,39.30
2018-01-12T18:06:00.678Z,37.50
2018-01-12T18:08:29.401Z,38.27
2018-01-12T18:10:57.718Z,39.57
2018-01-12T18:13:26.073Z,39.67
2018-01-12T18:15:54.420Z,36.20
2018-01-12T18:18:23.187Z,34.20
2018-01-12T18:20:51.490Z,37.47
2018-01-12T18:23:20.194Z,38.43
2018-01-12T18:25:48.547Z,35.30
2018-01-12T18:28:17.246Z,37.33
2018-01-12T18:30:45.560Z,39.77
2018-01-12T18:33:13.882Z,37.70
2018-01-12T18:35:42.192Z,39.10
2018-01-12T18:38:10.524Z,39.73
2018-01-12T18:40:39.119Z,39.50
2018-01-12T18:43:07.844Z,39.73
2018-01-12T18:45:36.182Z,40.90
2018-01-12T18:48:04.570Z,36.80
2018-01-12T18:50:32.899Z,34.80
2018-01-12T18:53:01.238Z,39.00
2018-01-12T18:55:29.527Z,42.00
2018-01-12T18:57:57.815Z,41.33
2018-01-12T19:00:26.184Z,37.93
2018-01-12T19:02:54.542Z,38.50
2018-01-12T19:05:22.850Z,37.70
2018-01-12T19:07:51.184Z,39.10
2018-01-12T19:10:19.491Z,36.73
2018-01-12T19:12:47.826Z,35.17
2018-01-12T19:15:16.135Z,40.70
2018-01-12T19:17:44.478Z,34.00
2018-01-12T19:20:12.758Z,37.20
2018-01-12T19:22:41.495Z,34.50
2018-01-12T19:25:10.124Z,35.37
2018-01-12T19:27:38.482Z,32.77
2018-01-12T19:30:06.842Z,33.17
2018-01-12T19:32:35.163Z,33.33
2018-01-12T19:35:03.881Z,33.60
2018-01-12T19:37:32.230Z,33.23
2018-01-12T19:40:00.595Z,32.40
2018-01-12T19:42:28.875Z,31.90
2018-01-12T19:44:57.614Z,32.80
2018-01-12T19:47:26.022Z,30.90
2018-01-12T19:49:55.322Z,31.07
2018-01-12T19:52:24.066Z,27.20
2018-01-12T19:54:52.390Z,28.93
2018-01-12T19:57:20.839Z,28.83
2018-01-12T19:59:49.157Z,31.00
2018-01-12T20:02:17.532Z,29.03
2018-01-12T20:04:46.010Z,29.07
2018-01-12T20:07:14.380Z,28.03
2018-01-12T20:09:42.691Z,27.67
2018-01-12T20:12:11.444Z,30.50
2018-01-12T20:14:39.755Z,28.63
2018-01-12T20:17:08.098Z,30.43
2018-01-12T20:19:36.828Z,27.17
2018-01-12T20:22:05.178Z,31.90
2018-01-12T20:24:33.893Z,27.53
2018-01-12T20:27:03.277Z,29.03
2018-01-12T20:29:31.642Z,27.53
2018-01-12T20:31:59.984Z,26.57
2018-01-12T20:34:28.611Z,26.13
2018-01-12T20:36:56.926Z,26.07
2018-01-12T20:39:25.276Z,26.97
2018-01-12T20:41:54.031Z,26.97
2018-01-12T20:44:22.354Z,25.77
2018-01-12T20:46:50.760Z,27.50
2018-01-12T20:49:19.539Z,25.03
2018-01-12T20:51:47.857Z,24.10
2018-01-12T20:54:16.164Z,25.60
2018-01-12T20:56:44.534Z,25.53
2018-01-12T20:59:12.870Z,29.90
2018-01-12T21:01:41.163Z,29.37
2018-01-12T21:04:09.982Z,26.83
2018-01-12T21:06:38.435Z,28.37
2018-01-12T21:09:06.743Z,27.30
2018-01-12T21:11:35.496Z,26.40
2018-01-12T21:14:03.846Z,28.17
2018-01-12T21:16:32.126Z,26.07
2018-01-12T21:19:00.431Z,26.30
2018-01-12T21:21:29.539Z,25.10
2018-01-12T21:23:58.130Z,30.30
2018-01-12T21:26:26.910Z,26.27
2018-01-12T21:28:56.144Z,27.30
2018-01-12T21:31:24.693Z,25.97
2018-01-12T21:33:53.637Z,23.87
2018-01-12T21:36:22.925Z,27.80
2018-01-12T21:38:51.348Z,25.40
2018-01-12T21:41:19.679Z,26.60
2018-01-12T21:43:48.104Z,28.90
2018-01-12T21:46:16.391Z,24.40
2018-01-12T21:48:44.710Z,26.30
2018-01-12T21:51:13.003Z,26.40
2018-01-12T21:53:41.643Z,26.90
2018-01-12T21:56:09.990Z,25.70
2018-01-12T21:58:38.581Z,27.27
2018-01-12T22:01:07.061Z,24.90
2018-01-12T22:03:35.383Z,25.30
2018-01-12T22:06:04.077Z,27.00
2018-01-12T22:08:32.626Z,27.50
2018-01-12T22:11:00.967Z,20.80
2018-01-12T22:13:29.266Z,19.53
2018-01-12T22:15:58.047Z,21.57
2018-01-12T22:18:26.560Z,18.63
2018-01-12T22:20:54.906Z,22.90
2018-01-12T22:23:23.190Z,20.23
2018-01-12T22:25:51.555Z,23.60
2018-01-12T22:28:19.939Z,18.07
2018-01-12T22:30:48.222Z,16.73
2018-01-12T22:33:16.534Z,20.37
2018-01-12T22:35:45.309Z,19.87
2018-01-12T22:38:13.839Z,20.00
2018-01-12T22:40:42.122Z,18.70
2018-01-12T22:43:10.433Z,19.20
2018-01-12T22:45:38.724Z,18.90
2018-01-12T22:48:07.049Z,18.83
2018-01-12T22:50:35.344Z,19.00
2018-01-12T22:53:03.616Z,19.30
2018-01-12T22:55:31.986Z,17.53
2018-01-12T22:58:00.291Z,18.60
2018-01-12T23:00:28.884Z,23.60
2018-01-12T23:02:57.459Z,24.50
2018-01-12T23:05:25.762Z,27.50
2018-01-12T23:07:54.470Z,25.43
2018-01-12T23:10:22.789Z,27.00
2018-01-12T23:12:51.106Z,26.87
2018-01-12T23:15:19.782Z,26.17
2018-01-12T23:17:48.522Z,26.40
2018-01-12T23:20:16.845Z,24.37
2018-01-12T23:22:45.534Z,27.03
2018-01-12T23:25:14.288Z,27.30
2018-01-12T23:27:42.606Z,26.93
2018-01-12T23:30:11.313Z,27.03
2018-01-12T23:32:39.638Z,26.97
2018-01-12T23:35:07.938Z,26.50
2018-01-12T23:37:36.648Z,25.13
2018-01-12T23:40:04.994Z,27.90
2018-01-12T23:42:33.690Z,25.00
2018-01-12T23:45:02.408Z,27.57
2018-01-12T23:47:31.040Z,26.30
2018-01-12T23:49:59.323Z,26.20
2018-01-12T23:52:27.632Z,25.87
2018-01-12T23:54:55.982Z,26.83
2018-01-12T23:57:24.679Z,25.30
2018-01-12T23:59:53.366Z,29.73
